• Join FlightAware (Why Join?)
  • Login
  • US Flag 
12:06AM EDT


 

Airport Tracker/Info


-or-


 

Live Flight TrackerFlight Track Log ✈ PDT4314 ✈ 01-Sep-2013 ✈ KBGM - KPHL

Flight Track Log - Related Links

Times and Time Zones

All times are in EDT time to prevent confusion due to time zone crossing. See the PDT4314 flight status page for this flight to view local times or setup timezone preferences in your user account.

Time Position Orientation Groundspeed Altitude Reporting Facility
EDT Latitude Longitude Course Direction KTS MPH feet Rate Location/Type
06:52PM 42.0307 -75.9215 173° South  Level Estimated
06:53PM 41.9714 -75.9022 180° South  Level Estimated
06:54PM 41.9107 -75.9108 186° South  Level FlightAware Approximate
06:55PM 41.8501 -75.9193 186° South  Level FlightAware Approximate
06:56PM 41.7894 -75.9278 186° South  Level FlightAware Approximate
06:57PM 41.7306 -75.9061 154° Southeast  Level Estimated
06:58PM 41.6718 -75.8845 160° South  Level Estimated
06:59PM 41.6129 -75.8628 159° South  Level Estimated
07:00PM 41.5566 -75.8315 157° South  Level FlightAware Approximate
07:01PM 41.4977 -75.8103 153° Southeast  Level Estimated
07:02PM 41.4388 -75.7891 161° South  Level Estimated
07:03PM 41.3834 -75.7550 155° Southeast  Level FlightAware Approximate
07:04PM 41.3280 -75.7210 155° Southeast  Level FlightAware Approximate
07:05PM 41.2689 -75.7010 162° South  Level Estimated
07:06PM 41.2118 -75.6724 159° South  Level FlightAware Approximate
07:07PM 41.1547 -75.6438 159° South  Level FlightAware Approximate
07:08PM 41.0976 -75.6153 159° South  Level FlightAware Approximate
07:09PM 41.0405 -75.5868 159° South  Level FlightAware Approximate
07:10PM 40.9810 -75.5689 159° South  Level Estimated
07:11PM 40.9215 -75.5510 163° South  Level Estimated
07:12PM 40.8644 -75.5228 160° South  Level FlightAware Approximate
07:12PM 40.7833 -75.5500 191° South 243 280 8,000  Level Philadelphia TRACON
07:13PM 40.8072 -75.4946 160° South  Level FlightAware Approximate
07:13PM 40.7000 -75.5500 180° South 243 280 8,000  Level Philadelphia TRACON
07:14PM 40.7501 -75.4664 160° South  Level FlightAware Approximate
07:14PM 40.6333 -75.6000 210° Southwest 234 269 7,700  Level Philadelphia TRACON
07:15PM 40.6902 -75.4509 190° South  Level Estimated
07:15PM 40.5833 -75.6000 180° South 221 254 6,800  Level Philadelphia TRACON
07:16PM 40.6304 -75.4663 191° South  Level FlightAware Approximate
07:16PM 40.5333 -75.5667 153° Southeast 216 249 6,000  Level Philadelphia TRACON
07:17PM 40.5486 -75.4875 191° South  Level FlightAware Approximate
07:17PM 40.4833 -75.5000 135° Southeast 235 270 5,000  Level Philadelphia TRACON
07:18PM 40.4333 -75.4500 143° Southeast 233 268 5,000 -360 Level Philadelphia TRACON
07:19PM 40.3833 -75.4000 143° Southeast 243 280 4,400 -540 Descending Philadelphia TRACON
07:20PM 40.3333 -75.3500 143° Southeast 225 259 4,000 -240 Descending Philadelphia TRACON
07:21PM 40.2667 -75.3167 159° South 227 261 4,000  Level Philadelphia TRACON
07:22PM 40.2167 -75.2833 153° Southeast 228 262 4,000  Level Philadelphia TRACON
07:23PM 40.1500 -75.2500 159° South 226 260 4,000  Level Philadelphia TRACON
07:24PM 40.1000 -75.2167 153° Southeast 226 260 4,000  Level Philadelphia TRACON
07:25PM 40.0500 -75.2000 166° South 221 254 4,000  Level Philadelphia TRACON
07:26PM 39.9833 -75.1833 169° South 206 237 4,000  Level Philadelphia TRACON
07:27PM 39.9333 -75.1667 166° South 207 238 4,000  Level Philadelphia TRACON
07:28PM 39.8833 -75.1333 153° Southeast 196 226 4,000 -480 Level Philadelphia TRACON
07:29PM 39.8333 -75.1167 166° South 182 209 3,100 -540 Descending Philadelphia TRACON
07:30PM 39.7833 -75.1000 166° South 177 204 3,000 -60 Descending Philadelphia TRACON
07:31PM 39.7333 -75.1167 194° South 204 235 3,000 -540 Level Philadelphia TRACON
07:32PM 39.7500 -75.1667 293° West 176 203 2,000 -780 Descending Philadelphia TRACON
07:33PM 39.8000 -75.2000 333° Northwest 179 206 1,500 -660 Descending Philadelphia TRACON
07:34PM 39.8500 -75.2167 346° North 133 153 700 -840 Descending Philadelphia TRACON